Time;durP1;ratioP1;P1;durP2;ratioP2;P2;SDS_P1;SDS_P2;PMS_P1;PMS_P2;Temp;Humidity;BMP_temperature;BMP_pressure;BME280_temperature;BME280_humidity;BME280_pressure;Samples;Min_cycle;Max_cycle;Signal;HPM_P1;HPM_P2
2022/07/09 00:01:40;;;;;;;13.88;5.65;;;17.90;99.90;;;;;;5011214;28;20064;-43
2022/07/09 00:04:07;;;;;;;10.00;4.57;;;17.80;99.90;;;;;;5012318;28;20062;-43
2022/07/09 00:06:35;;;;;;;14.65;4.78;;;17.80;99.90;;;;;;5006568;28;20054;-44
2022/07/09 00:09:02;;;;;;;12.68;4.60;;;17.80;99.90;;;;;;5009165;28;20569;-42
2022/07/09 00:11:29;;;;;;;8.70;4.25;;;17.80;99.90;;;;;;5011039;28;20157;-43
2022/07/09 00:13:55;;;;;;;12.88;5.57;;;17.80;99.90;;;;;;5011806;28;20078;-43
2022/07/09 00:16:22;;;;;;;13.45;5.38;;;17.80;99.90;;;;;;5011365;28;20097;-43
2022/07/09 00:18:49;;;;;;;11.77;4.82;;;17.80;99.90;;;;;;5011205;28;20129;-43
2022/07/09 00:21:16;;;;;;;12.52;4.35;;;17.70;99.90;;;;;;5009419;28;20172;-44
2022/07/09 00:23:44;;;;;;;11.43;4.75;;;17.70;99.90;;;;;;5011102;28;20054;-44
2022/07/09 00:26:10;;;;;;;10.70;4.38;;;17.70;99.90;;;;;;5010474;28;20058;-43
2022/07/09 00:28:37;;;;;;;10.07;3.85;;;17.70;99.90;;;;;;5008887;28;20108;-44
2022/07/09 00:31:04;;;;;;;11.80;4.38;;;17.70;99.90;;;;;;5012185;28;20054;-43
2022/07/09 00:33:31;;;;;;;7.05;3.80;;;17.60;99.90;;;;;;5007002;28;20081;-43
2022/07/09 00:35:57;;;;;;;14.38;5.65;;;17.60;99.90;;;;;;5015315;28;20471;-43
2022/07/09 00:38:24;;;;;;;9.50;3.78;;;17.60;99.90;;;;;;5016037;28;20483;-43
2022/07/09 00:40:52;;;;;;;12.27;4.85;;;17.60;99.90;;;;;;5014392;28;20056;-43
2022/07/09 00:43:19;;;;;;;9.57;4.30;;;17.60;99.90;;;;;;5015512;28;20060;-44
2022/07/09 00:45:46;;;;;;;9.77;4.45;;;17.50;99.90;;;;;;5015684;28;20096;-44
2022/07/09 00:48:13;;;;;;;8.27;4.13;;;17.50;99.90;;;;;;5013915;28;20562;-44
2022/07/09 00:50:40;;;;;;;11.02;4.90;;;17.50;99.90;;;;;;5015430;28;20064;-43
2022/07/09 00:53:08;;;;;;;11.55;4.45;;;17.40;99.90;;;;;;5013919;28;20140;-42
2022/07/09 00:55:35;;;;;;;9.23;3.95;;;17.40;99.90;;;;;;5015550;28;20406;-43
2022/07/09 00:58:03;;;;;;;12.60;4.60;;;17.40;99.90;;;;;;5013792;28;20057;-44
2022/07/09 01:00:30;;;;;;;9.45;4.38;;;17.40;99.90;;;;;;5015341;28;20057;-44
2022/07/09 01:02:57;;;;;;;16.55;6.07;;;17.40;99.90;;;;;;5015398;28;20126;-43
2022/07/09 01:05:24;;;;;;;13.90;5.85;;;17.30;99.90;;;;;;5015953;28;20149;-42
2022/07/09 01:07:50;;;;;;;14.10;5.57;;;17.30;99.90;;;;;;5012989;28;20054;-43
2022/07/09 01:10:18;;;;;;;10.65;5.70;;;17.30;99.90;;;;;;5010575;28;20136;-43
2022/07/09 01:12:45;;;;;;;11.23;5.32;;;17.20;99.90;;;;;;5014893;28;20425;-43
2022/07/09 01:15:13;;;;;;;11.80;5.80;;;17.20;99.90;;;;;;5015572;28;20107;-44
2022/07/09 01:17:40;;;;;;;10.70;4.97;;;17.20;99.90;;;;;;5013310;28;20494;-43
2022/07/09 01:20:08;;;;;;;17.33;6.20;;;17.10;99.90;;;;;;5015872;28;20089;-44
2022/07/09 01:22:36;;;;;;;9.13;4.80;;;17.10;99.90;;;;;;5013448;28;20391;-44
2022/07/09 01:25:03;;;;;;;10.38;4.68;;;17.10;99.90;;;;;;5013566;28;20086;-44
2022/07/09 01:27:29;;;;;;;11.15;5.68;;;17.10;99.90;;;;;;5015512;28;20502;-43
2022/07/09 01:29:56;;;;;;;10.18;5.82;;;17.10;99.90;;;;;;5012326;28;20121;-43
2022/07/09 01:32:23;;;;;;;21.30;7.15;;;17.10;99.90;;;;;;5012752;28;20053;-42
2022/07/09 01:34:49;;;;;;;12.27;7.22;;;17.10;99.90;;;;;;5013189;28;20132;-43
2022/07/09 01:37:16;;;;;;;11.13;5.05;;;17.00;99.90;;;;;;5014257;28;20120;-44
2022/07/09 01:39:51;;;;;;;16.67;7.82;;;17.10;99.90;;;;;;5013950;28;20530;-43
2022/07/09 01:42:17;;;;;;;15.27;6.47;;;17.10;99.90;;;;;;5014275;28;20053;-43
2022/07/09 01:44:44;;;;;;;14.90;7.60;;;17.00;99.90;;;;;;5013152;28;20558;-43
2022/07/09 01:47:11;;;;;;;14.18;6.40;;;17.10;99.90;;;;;;5012719;28;20060;-44
2022/07/09 01:49:38;;;;;;;11.85;6.50;;;17.00;99.90;;;;;;5013179;28;20483;-43
2022/07/09 01:52:06;;;;;;;9.45;5.78;;;17.00;99.90;;;;;;5014215;28;20077;-43
2022/07/09 01:54:33;;;;;;;16.42;7.63;;;17.10;99.90;;;;;;5013399;28;20145;-43
2022/07/09 01:57:01;;;;;;;17.10;8.07;;;17.00;99.90;;;;;;5013494;28;20085;-43
2022/07/09 01:59:27;;;;;;;10.75;5.68;;;17.10;99.90;;;;;;5012449;28;20045;-42
2022/07/09 02:01:54;;;;;;;12.55;6.40;;;17.10;99.90;;;;;;5014362;28;20462;-44
2022/07/09 02:04:21;;;;;;;10.85;5.57;;;17.10;99.90;;;;;;5013997;28;20057;-44
2022/07/09 02:06:48;;;;;;;12.93;6.78;;;17.10;99.90;;;;;;5011480;28;20132;-43
2022/07/09 02:09:14;;;;;;;13.93;6.90;;;17.10;99.90;;;;;;5009566;28;20125;-43
2022/07/09 02:11:41;;;;;;;13.55;8.00;;;17.00;99.90;;;;;;5008121;28;20046;-43
2022/07/09 02:14:09;;;;;;;11.43;6.13;;;17.00;99.90;;;;;;5010746;28;20514;-43
2022/07/09 02:16:36;;;;;;;10.75;6.45;;;17.00;99.90;;;;;;5014086;28;20530;-43
2022/07/09 02:19:03;;;;;;;10.55;6.32;;;17.00;99.90;;;;;;5012127;28;20145;-43
2022/07/09 02:21:29;;;;;;;12.68;7.32;;;17.00;99.90;;;;;;5012474;28;20464;-43
2022/07/09 02:23:58;;;;;;;9.48;5.57;;;17.00;99.90;;;;;;5013670;28;20474;-43
2022/07/09 02:26:25;;;;;;;9.80;4.85;;;17.00;99.90;;;;;;5014678;28;20050;-43
2022/07/09 02:28:52;;;;;;;18.70;7.65;;;17.00;99.90;;;;;;5012816;28;20058;-43
2022/07/09 02:31:20;;;;;;;8.90;5.82;;;17.00;99.90;;;;;;5013800;28;20053;-43
2022/07/09 02:33:47;;;;;;;10.73;6.10;;;17.00;99.90;;;;;;5015004;28;20050;-44
2022/07/09 02:36:14;;;;;;;8.90;5.85;;;17.00;99.90;;;;;;5013139;28;20137;-43
2022/07/09 02:38:41;;;;;;;11.02;5.78;;;17.10;99.90;;;;;;5012839;28;20073;-43
2022/07/09 02:41:07;;;;;;;10.40;5.95;;;17.00;99.90;;;;;;5013114;28;20499;-43
2022/07/09 02:43:34;;;;;;;10.90;5.78;;;17.00;99.90;;;;;;5011585;28;20467;-43
2022/07/09 02:46:01;;;;;;;11.52;7.32;;;17.00;99.90;;;;;;5013928;28;20081;-43
2022/07/09 02:48:29;;;;;;;9.45;6.53;;;17.00;99.90;;;;;;5013830;28;20478;-43
2022/07/09 02:50:56;;;;;;;13.43;7.57;;;17.00;99.90;;;;;;5013605;28;20470;-42
2022/07/09 02:53:22;;;;;;;13.48;7.38;;;17.00;99.90;;;;;;5011896;28;20046;-44
2022/07/09 02:55:49;;;;;;;12.65;6.93;;;17.00;99.90;;;;;;5011695;28;20096;-43
2022/07/09 02:58:16;;;;;;;11.02;6.18;;;17.00;99.90;;;;;;5011305;28;20121;-43
2022/07/09 03:00:43;;;;;;;11.52;6.07;;;17.00;99.90;;;;;;5012118;28;20049;-43
2022/07/09 03:03:10;;;;;;;10.27;5.75;;;17.00;99.90;;;;;;5012318;28;20052;-43
2022/07/09 03:05:38;;;;;;;14.98;6.68;;;17.00;99.90;;;;;;5013998;28;20050;-43
2022/07/09 03:08:05;;;;;;;10.38;6.45;;;17.00;99.90;;;;;;5012960;28;20081;-43
2022/07/09 03:10:32;;;;;;;9.95;5.10;;;17.00;99.90;;;;;;5013955;28;20466;-43
2022/07/09 03:12:59;;;;;;;13.02;6.72;;;17.00;99.90;;;;;;5011606;28;20073;-43
2022/07/09 03:15:25;;;;;;;12.60;6.25;;;17.00;99.90;;;;;;5011669;28;20140;-42
2022/07/09 03:17:52;;;;;;;16.38;7.30;;;17.00;99.90;;;;;;5012284;28;20133;-43
2022/07/09 03:20:19;;;;;;;16.23;7.40;;;17.00;99.90;;;;;;5013048;28;20046;-42
2022/07/09 03:22:47;;;;;;;11.40;6.13;;;17.00;99.90;;;;;;5011811;28;20145;-42
2022/07/09 03:25:14;;;;;;;10.57;5.82;;;17.00;99.90;;;;;;5013464;28;20132;-42
2022/07/09 03:27:40;;;;;;;10.77;6.32;;;17.00;99.90;;;;;;5008112;28;20544;-43
2022/07/09 03:30:08;;;;;;;14.68;6.22;;;17.00;99.90;;;;;;5012417;28;20129;-42
2022/07/09 03:32:35;;;;;;;10.15;5.75;;;17.00;99.90;;;;;;5013018;28;20085;-42
2022/07/09 03:35:01;;;;;;;11.02;5.43;;;17.00;99.90;;;;;;5013269;28;20132;-43
2022/07/09 03:37:28;;;;;;;8.65;5.00;;;17.00;99.90;;;;;;5012088;28;20512;-43
2022/07/09 03:39:56;;;;;;;12.43;6.10;;;17.00;99.90;;;;;;5012001;28;20053;-43
2022/07/09 03:42:23;;;;;;;14.10;7.05;;;16.90;99.90;;;;;;5011821;28;20088;-43
2022/07/09 03:44:50;;;;;;;10.27;5.47;;;17.00;99.90;;;;;;5013168;28;20136;-43
2022/07/09 03:47:16;;;;;;;13.25;7.15;;;17.00;99.90;;;;;;5009819;28;20084;-44
2022/07/09 03:49:43;;;;;;;11.45;6.47;;;16.90;99.90;;;;;;5011749;28;20135;-42
2022/07/09 03:52:10;;;;;;;10.38;5.63;;;16.90;99.90;;;;;;5012270;28;20050;-42
2022/07/09 03:54:37;;;;;;;11.25;5.88;;;16.90;99.90;;;;;;5012014;28;20549;-42
2022/07/09 03:57:05;;;;;;;10.70;5.60;;;16.90;99.90;;;;;;5009724;28;20060;-42
2022/07/09 03:59:32;;;;;;;10.25;5.22;;;16.90;99.90;;;;;;5010857;28;20048;-42
2022/07/09 04:01:59;;;;;;;10.70;6.28;;;16.90;99.90;;;;;;5011009;28;20081;-42
2022/07/09 04:04:25;;;;;;;9.55;5.70;;;16.90;99.90;;;;;;5011898;28;20074;-42
2022/07/09 04:06:54;;;;;;;9.65;6.28;;;16.90;99.90;;;;;;5011522;28;20050;-42
2022/07/09 04:09:21;;;;;;;12.80;7.30;;;17.00;99.90;;;;;;5011398;28;20054;-42
2022/07/09 04:11:48;;;;;;;10.00;6.57;;;17.00;99.90;;;;;;5011675;28;20137;-42
2022/07/09 04:14:19;;;;;;;11.88;7.90;;;17.00;99.90;;;;;;4995416;28;20133;-42
2022/07/09 04:16:46;;;;;;;14.75;9.15;;;17.00;99.90;;;;;;5001978;28;20045;-43
2022/07/09 04:19:12;;;;;;;17.30;8.45;;;17.00;99.90;;;;;;5010658;28;20136;-42
2022/07/09 04:21:39;;;;;;;15.77;7.95;;;17.00;99.90;;;;;;5012341;28;20494;-42
2022/07/09 04:24:06;;;;;;;11.10;6.72;;;17.00;99.90;;;;;;5010978;28;20133;-42
2022/07/09 04:26:33;;;;;;;13.90;8.07;;;17.00;99.90;;;;;;5011912;28;20125;-42
2022/07/09 04:29:00;;;;;;;13.73;7.90;;;17.00;99.90;;;;;;5009467;28;20142;-43
2022/07/09 04:31:28;;;;;;;15.27;9.27;;;17.00;99.90;;;;;;5011341;28;20401;-42
2022/07/09 04:33:54;;;;;;;15.57;9.68;;;17.10;99.90;;;;;;5009994;28;20530;-42
2022/07/09 04:36:21;;;;;;;13.35;8.55;;;17.10;99.90;;;;;;5012933;28;20133;-43
2022/07/09 04:38:48;;;;;;;13.48;8.35;;;17.10;99.90;;;;;;5010492;28;20141;-43
2022/07/09 04:41:15;;;;;;;17.10;8.95;;;17.10;99.90;;;;;;5010833;28;20057;-43
2022/07/09 04:43:42;;;;;;;15.00;8.77;;;17.10;99.90;;;;;;5009808;28;20156;-42
2022/07/09 04:46:08;;;;;;;13.60;8.90;;;17.20;99.90;;;;;;5009209;28;20049;-42
2022/07/09 04:48:36;;;;;;;16.85;9.43;;;17.20;99.90;;;;;;5009793;28;20107;-43
2022/07/09 04:51:03;;;;;;;16.50;8.70;;;17.20;99.90;;;;;;5009874;28;20092;-43
2022/07/09 04:53:30;;;;;;;15.38;10.93;;;17.20;99.90;;;;;;5004816;28;20121;-43
2022/07/09 04:55:57;;;;;;;16.63;8.95;;;17.20;99.90;;;;;;5012426;28;20108;-43
2022/07/09 04:58:24;;;;;;;19.13;10.77;;;17.30;99.90;;;;;;5005584;28;20065;-43
2022/07/09 05:00:50;;;;;;;12.05;8.77;;;17.30;99.90;;;;;;5003379;28;20136;-43
2022/07/09 05:03:17;;;;;;;15.82;9.25;;;17.30;99.90;;;;;;5007320;28;20050;-43
2022/07/09 05:05:45;;;;;;;17.10;11.43;;;17.30;99.90;;;;;;5011038;28;20112;-42
2022/07/09 05:08:12;;;;;;;14.75;10.20;;;17.40;99.90;;;;;;5002079;28;20459;-43
2022/07/09 05:10:39;;;;;;;17.08;10.75;;;17.40;99.90;;;;;;4999424;28;20050;-43
2022/07/09 05:13:06;;;;;;;18.02;9.98;;;17.40;99.90;;;;;;5009902;28;20136;-43
2022/07/09 05:15:33;;;;;;;17.15;10.70;;;17.40;99.90;;;;;;5003649;28;20057;-42
2022/07/09 05:18:00;;;;;;;18.38;10.63;;;17.40;99.90;;;;;;5010113;28;20058;-42
2022/07/09 05:20:27;;;;;;;21.95;11.25;;;17.50;99.90;;;;;;5011343;28;20049;-44
2022/07/09 05:22:55;;;;;;;16.63;10.13;;;17.40;99.90;;;;;;5010716;28;20085;-43
2022/07/09 05:25:22;;;;;;;15.18;8.50;;;17.40;99.90;;;;;;5012703;28;20555;-42
2022/07/09 05:27:49;;;;;;;21.50;11.07;;;17.40;99.90;;;;;;5015163;28;20054;-43
2022/07/09 05:30:16;;;;;;;17.90;10.52;;;17.50;99.90;;;;;;5014715;28;20141;-42
2022/07/09 05:32:43;;;;;;;16.35;9.55;;;17.50;99.90;;;;;;5015790;28;20053;-43
2022/07/09 05:35:10;;;;;;;17.30;10.57;;;17.50;99.90;;;;;;5006544;28;20066;-42
2022/07/09 05:37:41;;;;;;;14.90;9.77;;;17.60;99.90;;;;;;5010623;28;20137;-43
2022/07/09 05:40:11;;;;;;;12.60;7.97;;;17.60;99.90;;;;;;5006508;28;20422;-43
2022/07/09 05:42:38;;;;;;;16.27;9.63;;;17.70;99.90;;;;;;5013349;28;20391;-43
2022/07/09 05:45:06;;;;;;;14.80;9.05;;;17.80;99.90;;;;;;5014728;28;20073;-42
2022/07/09 05:47:33;;;;;;;18.50;9.82;;;17.80;99.90;;;;;;5014512;28;20057;-43
2022/07/09 05:49:59;;;;;;;13.30;8.60;;;17.80;99.90;;;;;;5012430;28;20447;-43
2022/07/09 05:52:26;;;;;;;15.32;8.90;;;17.90;99.90;;;;;;5013927;28;20554;-42
2022/07/09 05:54:53;;;;;;;15.05;8.05;;;17.90;99.90;;;;;;5015160;28;20133;-42
2022/07/09 05:57:21;;;;;;;11.38;7.70;;;18.00;99.90;;;;;;5014910;28;20124;-42
2022/07/09 05:59:48;;;;;;;15.25;8.32;;;18.00;99.90;;;;;;5014447;28;20060;-43
2022/07/09 06:02:15;;;;;;;14.75;8.98;;;18.00;99.90;;;;;;5015024;28;20089;-43
2022/07/09 06:04:41;;;;;;;15.18;7.78;;;18.10;99.90;;;;;;5014942;28;20089;-42
2022/07/09 06:07:09;;;;;;;15.75;7.88;;;18.10;99.90;;;;;;5014126;28;20077;-41
2022/07/09 06:09:36;;;;;;;12.45;7.80;;;18.20;99.90;;;;;;5013719;28;20371;-42
2022/07/09 06:12:03;;;;;;;13.32;7.28;;;18.20;99.90;;;;;;5013886;28;20046;-41
2022/07/09 06:14:32;;;;;;;11.82;7.30;;;18.30;99.90;;;;;;5015030;28;20088;-42
2022/07/09 06:17:05;;;;;;;10.45;6.75;;;18.30;99.90;;;;;;5013833;28;20061;-42
2022/07/09 06:19:32;;;;;;;12.07;7.78;;;18.40;99.90;;;;;;5013627;28;20050;-42
2022/07/09 06:21:59;;;;;;;10.13;6.30;;;18.50;99.90;;;;;;5012916;28;20137;-43
2022/07/09 06:24:26;;;;;;;10.18;6.55;;;18.60;99.90;;;;;;5015060;28;20097;-42
2022/07/09 06:26:52;;;;;;;7.18;5.35;;;18.60;99.90;;;;;;5013245;28;20486;-42
2022/07/09 06:29:19;;;;;;;11.38;6.30;;;18.60;99.90;;;;;;5013043;28;20568;-43
2022/07/09 06:31:47;;;;;;;11.80;5.85;;;18.70;99.90;;;;;;5013632;28;20478;-41
2022/07/09 06:34:14;;;;;;;9.82;5.97;;;18.70;99.90;;;;;;5012703;28;20454;-42
2022/07/09 06:36:44;;;;;;;9.30;5.82;;;18.80;99.90;;;;;;5003003;28;20078;-42
2022/07/09 06:41:54;;;;;;;11.45;5.70;;;18.80;99.90;;;;;;5009508;28;20049;-43
2022/07/09 06:44:21;;;;;;;8.82;5.38;;;18.80;99.90;;;;;;5013129;28;20093;-44
2022/07/09 06:46:49;;;;;;;9.07;5.32;;;18.90;99.90;;;;;;5008418;28;20052;-42
2022/07/09 06:49:16;;;;;;;8.70;5.13;;;18.90;99.90;;;;;;5002783;28;20156;-43
2022/07/09 06:51:43;;;;;;;9.43;5.07;;;18.90;99.90;;;;;;5011122;28;20133;-43
2022/07/09 06:54:10;;;;;;;11.50;4.72;;;18.90;99.90;;;;;;5010892;28;20046;-42
2022/07/09 06:56:37;;;;;;;11.88;4.55;;;19.00;99.90;;;;;;5013095;28;20104;-42
2022/07/09 06:59:03;;;;;;;6.85;4.22;;;19.00;99.90;;;;;;5012545;28;20056;-43
2022/07/09 07:01:30;;;;;;;10.07;4.50;;;19.10;99.90;;;;;;5010864;28;20061;-42
2022/07/09 07:03:58;;;;;;;9.15;5.05;;;19.10;99.90;;;;;;5011956;28;20121;-44
2022/07/09 07:06:25;;;;;;;13.65;5.13;;;19.10;99.90;;;;;;5007214;28;20085;-43
2022/07/09 07:08:52;;;;;;;9.00;4.47;;;19.20;99.90;;;;;;5013514;28;20468;-43
2022/07/09 07:11:19;;;;;;;8.07;4.70;;;19.20;99.90;;;;;;5010926;28;20512;-43
2022/07/09 07:13:45;;;;;;;11.25;4.03;;;19.30;99.90;;;;;;5013197;28;20054;-43
2022/07/09 07:16:12;;;;;;;9.27;4.38;;;19.30;99.90;;;;;;5012154;28;20096;-44
2022/07/09 07:18:39;;;;;;;9.27;4.00;;;19.40;99.90;;;;;;5011004;28;20050;-43
2022/07/09 07:21:07;;;;;;;8.65;4.07;;;19.40;99.90;;;;;;5012471;28;20100;-43
2022/07/09 07:23:34;;;;;;;13.60;3.88;;;19.50;99.90;;;;;;5011460;28;20129;-43
2022/07/09 07:26:01;;;;;;;7.05;4.50;;;19.50;99.90;;;;;;5012937;28;20125;-43
2022/07/09 07:28:27;;;;;;;8.07;4.10;;;19.50;99.90;;;;;;5012143;28;20124;-42
2022/07/09 07:30:55;;;;;;;14.25;3.83;;;19.60;99.90;;;;;;5012399;28;20490;-43
2022/07/09 07:33:21;;;;;;;6.38;3.10;;;19.60;99.90;;;;;;5010733;28;20057;-43
2022/07/09 07:35:48;;;;;;;9.18;3.33;;;19.60;99.90;;;;;;5011713;28;20112;-43
2022/07/09 07:38:16;;;;;;;5.40;3.15;;;19.60;99.90;;;;;;5012688;28;20077;-43
2022/07/09 07:40:43;;;;;;;4.95;3.40;;;19.70;99.90;;;;;;5012467;28;20092;-43
2022/07/09 07:43:11;;;;;;;8.20;3.22;;;19.60;99.90;;;;;;5012401;28;20050;-43
2022/07/09 07:45:38;;;;;;;5.68;3.20;;;19.70;99.90;;;;;;5006106;28;20061;-41
2022/07/09 07:48:05;;;;;;;6.55;3.10;;;19.70;99.90;;;;;;5011387;28;20144;-42
2022/07/09 07:50:32;;;;;;;7.10;3.10;;;19.70;99.90;;;;;;5003462;28;20057;-42
2022/07/09 07:52:59;;;;;;;6.68;3.30;;;19.70;99.90;;;;;;5006147;28;20065;-44
2022/07/09 07:55:27;;;;;;;7.45;3.00;;;19.70;99.90;;;;;;5013404;28;20096;-43
2022/07/09 07:57:54;;;;;;;5.20;2.60;;;19.80;99.90;;;;;;5013411;28;20050;-43
2022/07/09 08:00:22;;;;;;;8.00;2.95;;;19.80;99.90;;;;;;5011491;28;20085;-43
2022/07/09 08:02:48;;;;;;;5.88;2.65;;;19.80;99.90;;;;;;5013268;28;20064;-43
2022/07/09 08:05:15;;;;;;;4.18;2.22;;;19.80;99.90;;;;;;5007487;28;20140;-42
2022/07/09 08:07:42;;;;;;;8.68;1.85;;;19.80;99.90;;;;;;5011750;28;20084;-44
2022/07/09 08:10:09;;;;;;;6.35;2.50;;;19.80;99.90;;;;;;5010335;28;20168;-44
2022/07/09 08:12:37;;;;;;;3.75;2.00;;;19.90;99.90;;;;;;5012095;28;20466;-43
2022/07/09 08:15:05;;;;;;;6.55;2.40;;;20.00;99.90;;;;;;5012734;28;20089;-42
2022/07/09 08:17:32;;;;;;;4.70;2.10;;;20.10;99.90;;;;;;5012367;28;20088;-44
2022/07/09 08:22:36;;;;;;;6.25;2.33;;;20.40;99.90;;;;;;4873095;22;20066;-43
2022/07/09 08:25:03;;;;;;;4.72;2.13;;;20.50;99.90;;;;;;5031634;28;20037;-42
2022/07/09 08:27:30;;;;;;;5.28;2.10;;;20.60;99.90;;;;;;5026041;28;20077;-43
2022/07/09 08:29:58;;;;;;;5.70;2.00;;;20.80;99.90;;;;;;5032397;28;20099;-43
2022/07/09 08:32:25;;;;;;;5.57;2.20;;;20.90;99.90;;;;;;5031748;28;20051;-44
2022/07/09 08:34:52;;;;;;;7.50;2.25;;;21.00;99.90;;;;;;5032483;28;20161;-44
2022/07/09 08:37:19;;;;;;;5.50;1.95;;;21.10;99.90;;;;;;5032015;28;20786;-43
2022/07/09 08:39:46;;;;;;;6.03;1.80;;;21.20;99.90;;;;;;5030014;28;20089;-44
2022/07/09 08:42:12;;;;;;;4.18;1.95;;;21.40;99.90;;;;;;5031706;28;20482;-44
2022/07/09 08:44:42;;;;;;;5.70;1.77;;;21.50;99.90;;;;;;5031740;28;20418;-43
2022/07/09 08:47:10;;;;;;;4.22;1.80;;;21.70;99.90;;;;;;5031382;28;20080;-43
2022/07/09 08:49:37;;;;;;;4.85;1.85;;;21.90;99.70;;;;;;5028270;28;20396;-43
2022/07/09 08:52:04;;;;;;;3.72;1.50;;;22.10;99.60;;;;;;5032001;28;20428;-44
2022/07/09 08:54:32;;;;;;;4.20;1.33;;;22.30;99.00;;;;;;5032810;28;20077;-42
2022/07/09 08:56:59;;;;;;;4.97;1.60;;;22.50;98.50;;;;;;5034650;28;20054;-43
2022/07/09 08:59:26;;;;;;;4.35;1.60;;;22.60;97.90;;;;;;5034612;28;20536;-43
2022/07/09 09:01:52;;;;;;;3.72;1.45;;;22.70;97.60;;;;;;5033303;28;20041;-44
2022/07/09 09:04:21;;;;;;;3.50;1.30;;;22.90;97.90;;;;;;5036048;28;20045;-43
2022/07/09 09:06:47;;;;;;;3.05;1.30;;;23.10;97.20;;;;;;5035911;28;20041;-44
2022/07/09 09:09:18;;;;;;;3.20;1.02;;;23.30;96.70;;;;;;5034762;28;20132;-43
2022/07/09 09:11:48;;;;;;;3.22;1.00;;;23.40;95.80;;;;;;5035980;28;20076;-43
2022/07/09 09:14:19;;;;;;;3.42;1.10;;;23.30;95.50;;;;;;5032701;28;20060;-43
2022/07/09 09:16:45;;;;;;;2.90;1.65;;;23.20;95.20;;;;;;5035015;28;20069;-44
2022/07/09 09:19:12;;;;;;;4.95;1.25;;;23.00;95.00;;;;;;5035181;28;20042;-43
2022/07/09 09:21:40;;;;;;;2.55;1.13;;;23.10;94.60;;;;;;5035206;28;20092;-43
2022/07/09 09:24:07;;;;;;;3.80;1.10;;;22.90;94.60;;;;;;5034625;28;20053;-43
2022/07/09 09:26:35;;;;;;;5.40;1.05;;;22.80;94.90;;;;;;5035410;28;20509;-43
2022/07/09 09:29:03;;;;;;;3.03;1.00;;;22.80;95.00;;;;;;5035769;28;20052;-42
2022/07/09 09:31:30;;;;;;;2.90;0.93;;;22.80;95.10;;;;;;5035678;28;20049;-42
2022/07/09 09:33:58;;;;;;;2.45;0.85;;;22.80;95.00;;;;;;5034388;28;20052;-43
2022/07/09 09:36:32;;;;;;;3.30;1.05;;;22.80;94.50;;;;;;5034306;28;20053;-43
2022/07/09 09:39:14;;;;;;;4.03;0.85;;;23.00;94.00;;;;;;5033343;28;20037;-43
2022/07/09 09:41:42;;;;;;;3.58;1.23;;;23.20;94.20;;;;;;5035489;28;20125;-43
2022/07/09 09:44:12;;;;;;;3.97;1.15;;;23.40;94.20;;;;;;5033736;28;20049;-44
2022/07/09 09:46:39;;;;;;;3.43;0.93;;;23.60;93.70;;;;;;5034541;28;20042;-43
2022/07/09 09:49:08;;;;;;;2.90;0.90;;;23.70;93.00;;;;;;5033877;28;20077;-42
2022/07/09 09:51:36;;;;;;;5.18;1.55;;;23.60;92.40;;;;;;5034816;28;20485;-43
2022/07/09 09:54:03;;;;;;;2.80;0.90;;;23.70;92.10;;;;;;5032662;28;20057;-44
2022/07/09 09:56:31;;;;;;;3.95;1.00;;;23.90;92.10;;;;;;5032958;28;20045;-43
2022/07/09 09:58:58;;;;;;;2.90;1.23;;;24.00;91.90;;;;;;5033186;28;20092;-43
2022/07/09 10:01:25;;;;;;;6.22;1.38;;;23.90;91.30;;;;;;5034786;28;20149;-43
2022/07/09 10:03:52;;;;;;;6.60;1.27;;;23.90;91.40;;;;;;5034297;28;20084;-43
2022/07/09 10:06:19;;;;;;;5.13;1.13;;;23.80;91.00;;;;;;5032861;28;20045;-43
2022/07/09 10:08:46;;;;;;;4.93;1.20;;;23.80;91.10;;;;;;5033526;28;20127;-44
2022/07/09 10:11:13;;;;;;;5.63;1.35;;;23.90;91.10;;;;;;5033463;28;20056;-43
2022/07/09 10:13:50;;;;;;;5.18;1.00;;;24.00;90.80;;;;;;5032785;28;20041;-43
2022/07/09 10:16:17;;;;;;;6.00;1.40;;;24.10;90.80;;;;;;5031604;28;20103;-42
2022/07/09 10:18:51;;;;;;;6.28;1.23;;;24.20;91.10;;;;;;5031495;28;20045;-43
2022/07/09 10:21:18;;;;;;;5.32;1.30;;;24.50;90.90;;;;;;5028964;28;20049;-43
2022/07/09 10:23:50;;;;;;;4.90;1.27;;;24.60;90.00;;;;;;5032778;28;20050;-43
2022/07/09 10:26:17;;;;;;;4.97;1.10;;;24.80;89.80;;;;;;5033250;28;20052;-43
2022/07/09 10:28:45;;;;;;;2.38;1.00;;;24.80;89.00;;;;;;5031772;28;20072;-43
2022/07/09 10:31:12;;;;;;;7.03;1.33;;;24.80;88.30;;;;;;5033219;28;20045;-43
2022/07/09 10:33:39;;;;;;;4.28;0.98;;;24.70;89.20;;;;;;5033489;28;20147;-42
2022/07/09 10:36:11;;;;;;;3.83;1.13;;;24.70;87.80;;;;;;5032805;28;20076;-43
2022/07/09 10:38:39;;;;;;;4.05;1.10;;;24.60;87.40;;;;;;5033328;28;20052;-42
2022/07/09 10:41:05;;;;;;;3.30;1.10;;;24.60;88.10;;;;;;5031135;28;20103;-44
2022/07/09 10:43:39;;;;;;;6.85;1.30;;;24.70;88.40;;;;;;5032542;28;20516;-44
2022/07/09 10:46:12;;;;;;;5.93;1.15;;;24.90;87.80;;;;;;5033888;28;20053;-42
2022/07/09 10:48:38;;;;;;;4.40;1.08;;;25.00;87.20;;;;;;5028353;28;20061;-44
2022/07/09 10:51:05;;;;;;;2.83;0.82;;;25.00;86.10;;;;;;5030220;28;20543;-44
2022/07/09 10:53:32;;;;;;;3.30;1.00;;;25.00;86.00;;;;;;5032602;28;20064;-42
2022/07/09 10:55:59;;;;;;;5.18;1.55;;;24.90;85.90;;;;;;5028802;28;20051;-44
2022/07/09 10:58:26;;;;;;;6.00;1.27;;;24.80;86.00;;;;;;5025221;28;20046;-44
2022/07/09 11:00:55;;;;;;;4.47;1.48;;;24.70;85.40;;;;;;5032168;28;20049;-43
2022/07/09 11:03:27;;;;;;;3.40;0.80;;;24.60;86.20;;;;;;5031108;28;20525;-43
2022/07/09 11:05:53;;;;;;;6.50;1.40;;;24.50;86.50;;;;;;5032087;28;20053;-44
2022/07/09 11:08:20;;;;;;;2.97;1.10;;;24.50;87.10;;;;;;5029448;28;20389;-44
2022/07/09 11:10:47;;;;;;;7.88;1.60;;;24.70;87.60;;;;;;5043316;28;20057;-43
2022/07/09 11:13:14;;;;;;;6.57;1.30;;;24.90;86.30;;;;;;5032258;28;20104;-44
2022/07/09 11:15:41;;;;;;;6.15;1.52;;;25.00;85.70;;;;;;5031382;28;20120;-44
2022/07/09 11:18:09;;;;;;;5.72;1.38;;;25.10;85.80;;;;;;5029502;28;21591;-42
2022/07/09 11:20:40;;;;;;;8.50;1.55;;;25.20;85.60;;;;;;5032111;28;20140;-42
2022/07/09 11:23:07;;;;;;;8.77;1.67;;;25.20;84.30;;;;;;5029801;28;20095;-43
2022/07/09 11:25:34;;;;;;;9.43;1.80;;;25.00;85.40;;;;;;5032610;28;20489;-43
2022/07/09 11:28:01;;;;;;;8.98;1.42;;;24.80;85.90;;;;;;5032667;28;20045;-42
2022/07/09 11:30:28;;;;;;;10.48;1.80;;;24.60;86.90;;;;;;5028543;28;20123;-43
2022/07/09 11:32:55;;;;;;;9.30;2.30;;;24.30;87.70;;;;;;5029281;28;20053;-44
2022/07/09 11:35:29;;;;;;;7.78;1.60;;;24.20;87.70;;;;;;5032118;28;20441;-43
2022/07/09 11:37:58;;;;;;;9.68;2.00;;;24.20;88.40;;;;;;5019631;28;20542;-43
2022/07/09 11:40:25;;;;;;;7.63;1.83;;;24.10;88.50;;;;;;5028865;28;20100;-43
2022/07/09 11:42:52;;;;;;;10.77;2.20;;;24.00;88.10;;;;;;5031924;28;20355;-43
2022/07/09 11:45:24;;;;;;;10.45;2.33;;;23.90;87.90;;;;;;5031496;28;20420;-43
2022/07/09 11:47:51;;;;;;;9.52;2.08;;;23.80;88.40;;;;;;5030927;28;20095;-44
2022/07/09 11:50:19;;;;;;;8.65;2.10;;;24.00;90.00;;;;;;5030502;28;20099;-43
2022/07/09 11:52:47;;;;;;;10.77;1.88;;;24.30;88.70;;;;;;5031171;28;20131;-44
2022/07/09 11:55:16;;;;;;;9.93;1.80;;;24.50;87.30;;;;;;5031137;28;20091;-44
2022/07/09 11:57:51;;;;;;;7.72;1.83;;;24.50;86.60;;;;;;5030033;28;20099;-44
2022/07/09 12:00:21;;;;;;;9.88;1.45;;;24.50;87.20;;;;;;5031968;28;20123;-43
2022/07/09 12:02:48;;;;;;;15.18;1.65;;;24.50;87.30;;;;;;5031436;28;20049;-43
2022/07/09 12:05:27;;;;;;;13.63;1.83;;;24.50;86.50;;;;;;5031727;28;20053;-44
2022/07/09 12:07:54;;;;;;;10.30;1.40;;;24.80;86.30;;;;;;5027656;28;20096;-44
2022/07/09 12:10:27;;;;;;;9.43;1.65;;;25.00;85.00;;;;;;5031955;28;20065;-44
2022/07/09 12:12:54;;;;;;;12.50;2.03;;;25.20;82.90;;;;;;5030115;28;20049;-43
2022/07/09 12:15:21;;;;;;;9.75;1.80;;;25.10;83.60;;;;;;5034700;28;20520;-43
2022/07/09 12:17:52;;;;;;;6.82;1.55;;;25.10;82.80;;;;;;5029464;28;20053;-43
2022/07/09 12:20:18;;;;;;;7.13;1.43;;;25.00;82.80;;;;;;5029614;28;20053;-44
2022/07/09 12:22:45;;;;;;;11.57;2.05;;;24.90;83.70;;;;;;5032006;28;20337;-42
2022/07/09 12:25:13;;;;;;;6.15;1.33;;;24.90;82.80;;;;;;5029360;28;20033;-44
2022/07/09 12:27:41;;;;;;;10.55;1.75;;;25.10;83.50;;;;;;5031305;28;20065;-42
2022/07/09 12:30:09;;;;;;;9.52;1.60;;;25.40;80.80;;;;;;5036683;28;20084;-42
2022/07/09 12:32:36;;;;;;;8.13;1.63;;;25.30;79.60;;;;;;5035528;28;20485;-43
2022/07/09 12:35:03;;;;;;;6.55;1.00;;;25.20;78.90;;;;;;5032550;28;20052;-44
2022/07/09 12:37:30;;;;;;;6.45;1.00;;;25.10;76.80;;;;;;5038716;28;20390;-44
2022/07/09 12:39:56;;;;;;;4.38;1.40;;;25.20;76.70;;;;;;5037519;28;20067;-43
2022/07/09 12:42:23;;;;;;;3.30;1.17;;;25.40;77.70;;;;;;5037315;28;20401;-43
2022/07/09 12:44:51;;;;;;;8.93;1.98;;;25.50;78.10;;;;;;5042416;28;20481;-43
2022/07/09 12:47:18;;;;;;;12.27;1.65;;;25.50;76.10;;;;;;5036503;28;20535;-43